Time;durP1;ratioP1;P1;durP2;ratioP2;P2;SDS_P1;SDS_P2;PMS_P1;PMS_P2;Temp;Humidity;BMP_temperature;BMP_pressure;BME280_temperature;BME280_humidity;BME280_pressure;Samples;Min_cycle;Max_cycle;Signal;HPM_P1;HPM_P2
2023/01/05 00:01:20;;;;;;;9.38;3.35;;;;;;;;;;5034291;28;20040;-28
2023/01/05 00:03:46;;;;;;;8.57;2.80;;;;;;;;;;5034127;28;20018;-24
2023/01/05 00:06:13;;;;;;;7.90;2.60;;;;;;;;;;5034516;28;20033;-25
2023/01/05 00:08:40;;;;;;;7.85;3.20;;;;;;;;;;5034324;28;20117;-27
2023/01/05 00:22:37;;;;;;;10.98;3.80;;;;;;;;;;5034110;28;20072;-23
2023/01/05 00:25:05;;;;;;;15.98;4.25;;;;;;;;;;5033269;28;20029;-29
2023/01/05 00:27:32;;;;;;;12.90;3.25;;;;;;;;;;5034090;28;20107;-24
2023/01/05 00:29:58;;;;;;;15.95;4.10;;;;;;;;;;5033137;28;20034;-25
2023/01/05 00:32:25;;;;;;;9.93;2.83;;;;;;;;;;5033074;28;20479;-24
2023/01/05 00:34:54;;;;;;;15.30;3.85;;;;;;;;;;5034026;28;20017;-24
2023/01/05 00:37:21;;;;;;;10.40;3.10;;;;;;;;;;5034035;28;20057;-26
2023/01/05 00:39:47;;;;;;;14.25;4.45;;;;;;;;;;5035981;28;20407;-24
2023/01/05 00:42:13;;;;;;;12.60;3.80;;;;;;;;;;5036660;28;20087;-23
2023/01/05 00:44:39;;;;;;;13.15;3.90;;;;;;;;;;5037575;28;20096;-26
2023/01/05 00:47:06;;;;;;;16.08;3.95;;;;;;;;;;5037867;28;20025;-23
2023/01/05 00:49:32;;;;;;;10.82;3.42;;;;;;;;;;5037561;28;20025;-24
2023/01/05 00:51:58;;;;;;;11.80;3.38;;;;;;;;;;5037402;28;20022;-23
2023/01/05 00:54:24;;;;;;;8.77;3.53;;;;;;;;;;5036868;28;20045;-25
2023/01/05 00:56:50;;;;;;;9.52;3.22;;;;;;;;;;5036425;28;20044;-28
2023/01/05 00:59:17;;;;;;;12.57;2.63;;;;;;;;;;5037370;28;20462;-24
2023/01/05 01:01:47;;;;;;;12.55;3.47;;;;;;;;;;5037522;28;20349;-30
2023/01/05 01:04:14;;;;;;;10.48;2.75;;;;;;;;;;5037394;28;20033;-24
2023/01/05 01:06:40;;;;;;;13.63;3.95;;;;;;;;;;5037281;28;20052;-23
2023/01/05 01:09:06;;;;;;;12.32;4.07;;;;;;;;;;5037481;28;20021;-24
2023/01/05 01:11:32;;;;;;;9.82;2.72;;;;;;;;;;5037440;28;20037;-25
2023/01/05 01:13:58;;;;;;;7.10;3.15;;;;;;;;;;5037116;28;20150;-25
2023/01/05 01:16:24;;;;;;;5.72;2.83;;;;;;;;;;5037118;28;20025;-25
2023/01/05 01:18:51;;;;;;;7.70;3.38;;;;;;;;;;5037069;28;20112;-23
2023/01/05 01:21:17;;;;;;;6.50;3.08;;;;;;;;;;5037199;28;20156;-23
2023/01/05 01:23:43;;;;;;;11.48;3.13;;;;;;;;;;5036866;28;20539;-24
2023/01/05 01:26:11;;;;;;;11.82;3.45;;;;;;;;;;5037137;28;20026;-24
2023/01/05 01:28:37;;;;;;;9.05;3.30;;;;;;;;;;5036840;28;20448;-24
2023/01/05 01:31:04;;;;;;;10.77;3.28;;;;;;;;;;5037029;28;20364;-24
2023/01/05 01:33:30;;;;;;;7.45;3.53;;;;;;;;;;5035743;28;20486;-28
2023/01/05 01:35:57;;;;;;;7.28;3.03;;;;;;;;;;5036717;28;20021;-26
2023/01/05 01:38:23;;;;;;;5.93;2.88;;;;;;;;;;5036914;28;20033;-24
2023/01/05 01:40:50;;;;;;;7.90;3.40;;;;;;;;;;5036568;28;20415;-26
2023/01/05 01:43:16;;;;;;;8.02;3.00;;;;;;;;;;5036523;28;20032;-29
2023/01/05 01:45:42;;;;;;;9.07;4.50;;;;;;;;;;5036577;28;20361;-24
2023/01/05 01:48:10;;;;;;;10.02;3.03;;;;;;;;;;5036503;28;20410;-24
2023/01/05 01:50:40;;;;;;;12.38;4.03;;;;;;;;;;5036148;28;20338;-26
2023/01/05 01:53:09;;;;;;;7.40;3.13;;;;;;;;;;5036263;28;20025;-24
2023/01/05 01:55:36;;;;;;;7.65;2.55;;;;;;;;;;5036593;28;20033;-24
2023/01/05 01:58:06;;;;;;;10.10;3.13;;;;;;;;;;5036568;28;20333;-23
2023/01/05 02:00:32;;;;;;;8.43;2.80;;;;;;;;;;5036211;28;20021;-27
2023/01/05 02:02:58;;;;;;;12.23;3.17;;;;;;;;;;5036157;28;20364;-24
2023/01/05 02:05:28;;;;;;;9.48;2.67;;;;;;;;;;5036076;28;20213;-27
2023/01/05 02:07:54;;;;;;;8.93;3.45;;;;;;;;;;5036115;28;20159;-23
2023/01/05 02:10:27;;;;;;;10.23;2.83;;;;;;;;;;5036081;28;20406;-26
2023/01/05 02:12:53;;;;;;;9.75;3.13;;;;;;;;;;5036240;28;20033;-25
2023/01/05 02:15:23;;;;;;;9.68;3.53;;;;;;;;;;5036033;28;20111;-24
2023/01/05 02:17:56;;;;;;;13.50;3.53;;;;;;;;;;5036239;28;20026;-24
2023/01/05 02:20:48;;;;;;;7.95;3.33;;;;;;;;;;5035805;28;20109;-28
2023/01/05 02:23:30;;;;;;;10.98;3.83;;;;;;;;;;5035728;28;20475;-28
2023/01/05 02:26:15;;;;;;;7.88;2.15;;;;;;;;;;5035779;28;20021;-24
2023/01/05 02:28:44;;;;;;;5.88;3.00;;;;;;;;;;5034757;28;20086;-26
2023/01/05 02:31:17;;;;;;;6.43;2.45;;;;;;;;;;5035651;28;20052;-24
2023/01/05 02:33:54;;;;;;;10.80;3.63;;;;;;;;;;5036392;28;20045;-28
2023/01/05 02:36:24;;;;;;;8.10;2.83;;;;;;;;;;5035441;28;20025;-25
2023/01/05 02:39:02;;;;;;;9.27;3.30;;;;;;;;;;5034581;28;20400;-24
2023/01/05 02:41:34;;;;;;;7.13;2.75;;;;;;;;;;5035693;28;20110;-24
2023/01/05 02:44:01;;;;;;;7.13;3.22;;;;;;;;;;5035388;28;20029;-25
2023/01/05 02:46:27;;;;;;;12.00;3.95;;;;;;;;;;5035618;28;20064;-25
2023/01/05 02:48:56;;;;;;;8.93;3.28;;;;;;;;;;5035308;28;20040;-24
2023/01/05 02:51:24;;;;;;;10.38;3.38;;;;;;;;;;5035317;28;20479;-24
2023/01/05 02:53:53;;;;;;;9.52;3.10;;;;;;;;;;5035197;28;20029;-26
2023/01/05 02:56:40;;;;;;;5.43;2.97;;;;;;;;;;5034311;28;20433;-24
2023/01/05 02:59:19;;;;;;;6.55;3.45;;;;;;;;;;5035021;28;20033;-26
2023/01/05 03:01:47;;;;;;;7.55;3.67;;;;;;;;;;5034106;28;20353;-24
2023/01/05 03:04:20;;;;;;;9.73;3.53;;;;;;;;;;5034316;28;20103;-26
2023/01/05 03:06:57;;;;;;;7.00;3.33;;;;;;;;;;5035373;28;20032;-25
2023/01/05 03:09:25;;;;;;;7.60;3.65;;;;;;;;;;5034982;28;20113;-24
2023/01/05 03:14:39;;;;;;;7.80;3.33;;;;;;;;;;5035257;28;20040;-24
2023/01/05 03:17:07;;;;;;;5.63;3.00;;;;;;;;;;5034930;28;20025;-24
2023/01/05 03:19:41;;;;;;;12.07;3.47;;;;;;;;;;5034857;28;20057;-24
2023/01/05 03:36:26;;;;;;;8.55;3.58;;;;;;;;;;5031961;28;20048;-26
2023/01/05 03:38:53;;;;;;;6.97;3.13;;;;;;;;;;5034860;28;20040;-26
2023/01/05 03:41:22;;;;;;;6.28;3.10;;;;;;;;;;5033666;28;20025;-25
2023/01/05 03:43:49;;;;;;;11.55;3.60;;;;;;;;;;5033508;28;20025;-26
2023/01/05 03:46:17;;;;;;;12.50;3.33;;;;;;;;;;5034524;28;20017;-24
2023/01/05 03:48:43;;;;;;;5.88;2.72;;;;;;;;;;5034783;28;20025;-25
2023/01/05 03:51:09;;;;;;;5.78;2.92;;;;;;;;;;5033533;28;20040;-24
2023/01/05 03:53:36;;;;;;;8.00;3.05;;;;;;;;;;5033417;28;20468;-24
2023/01/05 03:56:02;;;;;;;7.57;3.28;;;;;;;;;;5034455;28;20041;-24
2023/01/05 03:58:28;;;;;;;5.75;2.40;;;;;;;;;;5034461;28;20372;-25
2023/01/05 04:00:54;;;;;;;9.55;3.58;;;;;;;;;;5034354;28;20060;-26
2023/01/05 04:03:20;;;;;;;6.40;2.63;;;;;;;;;;5034409;28;20045;-25
2023/01/05 04:05:47;;;;;;;6.70;3.58;;;;;;;;;;5034049;28;20388;-25
2023/01/05 04:08:13;;;;;;;6.63;2.65;;;;;;;;;;5033398;28;20095;-25
2023/01/05 04:10:39;;;;;;;7.43;3.20;;;;;;;;;;5034322;28;20029;-24
2023/01/05 04:13:05;;;;;;;8.82;3.08;;;;;;;;;;5034457;28;20053;-28
2023/01/05 04:15:31;;;;;;;7.43;2.72;;;;;;;;;;5037290;28;20061;-24
2023/01/05 04:17:57;;;;;;;7.45;3.13;;;;;;;;;;5038209;28;20364;-23
2023/01/05 04:20:23;;;;;;;7.32;3.00;;;;;;;;;;5038283;28;20036;-25
2023/01/05 04:22:49;;;;;;;7.32;2.90;;;;;;;;;;5038040;28;20087;-24
2023/01/05 04:25:16;;;;;;;6.32;2.35;;;;;;;;;;5038035;28;20025;-23
2023/01/05 04:27:42;;;;;;;5.53;2.83;;;;;;;;;;5037158;28;20052;-24
2023/01/05 04:30:08;;;;;;;7.95;3.63;;;;;;;;;;5037892;28;20076;-25
2023/01/05 04:32:34;;;;;;;8.90;3.05;;;;;;;;;;5037842;28;20417;-23
2023/01/05 04:35:00;;;;;;;7.53;2.92;;;;;;;;;;5037913;28;20207;-25
2023/01/05 04:37:27;;;;;;;7.28;2.90;;;;;;;;;;5037822;28;20029;-23
2023/01/05 04:39:53;;;;;;;9.57;3.15;;;;;;;;;;5037985;28;20029;-24
2023/01/05 04:42:19;;;;;;;7.07;2.88;;;;;;;;;;5038459;28;20112;-24
2023/01/05 04:44:45;;;;;;;8.95;2.55;;;;;;;;;;5037633;28;20036;-24
2023/01/05 04:47:11;;;;;;;7.47;3.03;;;;;;;;;;5037895;28;20357;-24
2023/01/05 04:49:37;;;;;;;6.75;2.33;;;;;;;;;;5037587;28;20108;-24
2023/01/05 04:52:05;;;;;;;6.13;2.58;;;;;;;;;;5037729;28;20385;-24
2023/01/05 04:54:31;;;;;;;5.95;2.70;;;;;;;;;;5037140;28;20052;-28
2023/01/05 04:56:57;;;;;;;5.88;3.13;;;;;;;;;;5037742;28;20026;-24
2023/01/05 04:59:23;;;;;;;8.93;2.75;;;;;;;;;;5037367;28;20048;-24
2023/01/05 05:01:49;;;;;;;7.15;2.45;;;;;;;;;;5037097;28;20064;-24
2023/01/05 05:04:15;;;;;;;7.88;3.45;;;;;;;;;;5037092;28;20052;-23
2023/01/05 05:06:41;;;;;;;13.93;3.40;;;;;;;;;;5037753;28;20029;-24
2023/01/05 05:09:07;;;;;;;4.88;2.40;;;;;;;;;;5036199;28;20487;-25
2023/01/05 05:11:34;;;;;;;8.50;2.90;;;;;;;;;;5037254;28;20120;-26
2023/01/05 05:14:00;;;;;;;6.22;2.72;;;;;;;;;;5036779;28;20053;-24
2023/01/05 05:16:26;;;;;;;6.53;2.70;;;;;;;;;;5036539;28;20033;-24
2023/01/05 05:18:52;;;;;;;5.10;2.63;;;;;;;;;;5036768;28;20048;-24
2023/01/05 05:21:18;;;;;;;8.85;3.45;;;;;;;;;;5036759;28;20033;-24
2023/01/05 05:23:44;;;;;;;5.63;2.58;;;;;;;;;;5036673;28;20025;-27
2023/01/05 05:26:10;;;;;;;8.38;2.95;;;;;;;;;;5035712;28;20109;-24
2023/01/05 05:28:37;;;;;;;14.55;3.47;;;;;;;;;;5035407;28;20049;-23
2023/01/05 05:31:03;;;;;;;8.25;2.35;;;;;;;;;;5036247;28;20104;-23
2023/01/05 05:33:29;;;;;;;14.02;3.72;;;;;;;;;;5036344;28;20408;-28
2023/01/05 05:35:55;;;;;;;7.68;2.63;;;;;;;;;;5035469;28;20037;-25
2023/01/05 05:38:21;;;;;;;14.65;3.88;;;;;;;;;;5036491;28;20068;-27
2023/01/05 05:40:48;;;;;;;6.00;2.95;;;;;;;;;;5036450;28;20036;-26
2023/01/05 05:43:14;;;;;;;7.55;2.78;;;;;;;;;;5036295;28;20345;-23
2023/01/05 05:45:40;;;;;;;7.35;3.80;;;;;;;;;;5036090;28;20357;-23
2023/01/05 05:48:06;;;;;;;5.55;2.40;;;;;;;;;;5036087;28;20033;-24
2023/01/05 05:50:33;;;;;;;7.28;2.72;;;;;;;;;;5035028;28;20021;-27
2023/01/05 05:52:59;;;;;;;12.25;4.18;;;;;;;;;;5035905;28;20040;-25
2023/01/05 05:55:25;;;;;;;8.68;3.25;;;;;;;;;;5036079;28;20033;-25
2023/01/05 05:57:51;;;;;;;8.95;2.92;;;;;;;;;;5036151;28;20033;-24
2023/01/05 06:03:19;;;;;;;7.15;2.47;;;;;;;;;;5404820;22;20053;-29
2023/01/05 06:05:45;;;;;;;8.48;3.15;;;;;;;;;;5035780;28;20021;-29
2023/01/05 06:08:11;;;;;;;7.90;2.20;;;;;;;;;;5035920;28;20021;-30
2023/01/05 06:10:37;;;;;;;4.10;2.70;;;;;;;;;;5051580;28;20108;-29
2023/01/05 06:13:04;;;;;;;4.38;2.58;;;;;;;;;;5035556;28;20018;-30
2023/01/05 06:15:30;;;;;;;5.05;2.20;;;;;;;;;;5035604;28;20021;-29
2023/01/05 06:17:56;;;;;;;7.20;2.58;;;;;;;;;;5035613;28;20036;-30
2023/01/05 06:20:22;;;;;;;4.72;3.10;;;;;;;;;;5035344;28;20026;-29
2023/01/05 06:22:48;;;;;;;7.47;2.30;;;;;;;;;;5035575;28;20094;-29
2023/01/05 06:25:15;;;;;;;4.80;2.25;;;;;;;;;;5035568;28;20021;-30
2023/01/05 06:27:41;;;;;;;7.88;2.85;;;;;;;;;;5035465;28;20360;-29
2023/01/05 06:30:07;;;;;;;11.35;3.83;;;;;;;;;;5035370;28;20048;-30
2023/01/05 06:32:33;;;;;;;7.30;2.28;;;;;;;;;;5035171;28;20022;-29
2023/01/05 06:35:00;;;;;;;5.95;2.80;;;;;;;;;;5035277;28;20049;-29
2023/01/05 06:37:26;;;;;;;8.27;3.17;;;;;;;;;;5035027;28;20029;-29
2023/01/05 06:39:55;;;;;;;6.25;2.50;;;;;;;;;;5034514;28;20037;-29
2023/01/05 06:42:21;;;;;;;9.73;3.47;;;;;;;;;;5035288;28;20037;-30
2023/01/05 06:44:47;;;;;;;7.40;2.65;;;;;;;;;;5035102;28;20045;-30
2023/01/05 06:47:13;;;;;;;10.05;4.20;;;;;;;;;;5035044;28;20033;-29
2023/01/05 06:49:39;;;;;;;6.80;2.75;;;;;;;;;;5034896;28;20028;-29
2023/01/05 06:52:05;;;;;;;4.47;1.98;;;;;;;;;;5033917;28;20098;-29
2023/01/05 06:54:31;;;;;;;5.05;2.60;;;;;;;;;;5035170;28;20213;-30
2023/01/05 06:56:57;;;;;;;6.60;2.97;;;;;;;;;;5034818;28;20029;-30
2023/01/05 06:59:24;;;;;;;7.50;3.13;;;;;;;;;;5035183;28;20025;-29
2023/01/05 07:01:50;;;;;;;5.80;2.65;;;;;;;;;;5034753;28;20123;-30
2023/01/05 07:04:16;;;;;;;7.05;2.72;;;;;;;;;;5034756;28;20073;-29
2023/01/05 07:06:42;;;;;;;8.25;2.72;;;;;;;;;;5034605;28;20521;-29
2023/01/05 07:09:09;;;;;;;4.85;2.78;;;;;;;;;;5034431;28;20135;-29
2023/01/05 07:11:36;;;;;;;11.82;5.10;;;;;;;;;;5034341;28;20060;-29
2023/01/05 07:14:02;;;;;;;12.57;4.28;;;;;;;;;;5034312;28;20421;-29
2023/01/05 07:16:28;;;;;;;12.05;3.35;;;;;;;;;;5034481;28;20033;-30
2023/01/05 07:18:54;;;;;;;6.03;3.33;;;;;;;;;;5034270;28;20336;-30
2023/01/05 07:21:20;;;;;;;18.13;4.13;;;;;;;;;;5034362;28;20334;-30
2023/01/05 07:23:46;;;;;;;11.70;3.50;;;;;;;;;;5034384;28;20142;-28
2023/01/05 07:26:12;;;;;;;18.92;3.72;;;;;;;;;;5033156;28;20505;-30
2023/01/05 07:28:39;;;;;;;15.32;3.35;;;;;;;;;;5034108;28;20475;-30
2023/01/05 07:31:08;;;;;;;11.60;3.30;;;;;;;;;;5034404;28;20060;-29
2023/01/05 07:33:37;;;;;;;11.63;2.97;;;;;;;;;;5033941;28;20017;-30
2023/01/05 07:36:03;;;;;;;17.55;3.63;;;;;;;;;;5034043;28;20026;-30
2023/01/05 07:38:31;;;;;;;18.95;3.33;;;;;;;;;;5034171;28;20036;-29
2023/01/05 07:40:58;;;;;;;9.38;2.50;;;;;;;;;;5034109;28;20029;-29
2023/01/05 07:43:24;;;;;;;10.80;3.30;;;;;;;;;;5034012;28;20101;-29
2023/01/05 07:45:51;;;;;;;11.23;3.30;;;;;;;;;;5034339;28;20030;-29
2023/01/05 07:48:17;;;;;;;13.50;3.40;;;;;;;;;;5034530;28;20029;-30
2023/01/05 07:50:43;;;;;;;13.00;3.38;;;;;;;;;;5040380;28;20033;-29
2023/01/05 07:53:09;;;;;;;9.07;3.30;;;;;;;;;;5040690;28;20407;-29
2023/01/05 07:55:35;;;;;;;9.02;3.00;;;;;;;;;;5040622;28;20037;-30
2023/01/05 07:58:01;;;;;;;11.85;3.03;;;;;;;;;;5040573;28;20075;-30
2023/01/05 08:00:28;;;;;;;12.35;3.10;;;;;;;;;;5040768;28;20029;-30
2023/01/05 08:02:54;;;;;;;10.65;2.92;;;;;;;;;;5040699;28;20112;-30
2023/01/05 08:05:20;;;;;;;4.80;2.40;;;;;;;;;;5040477;28;20036;-29
2023/01/05 08:07:47;;;;;;;9.88;3.10;;;;;;;;;;5040561;28;20028;-29
2023/01/05 08:10:28;;;;;;;5.82;2.80;;;;;;;;;;5040629;28;20028;-30
2023/01/05 08:15:39;;;;;;;7.70;2.40;;;;;;;;;;5040586;28;20418;-30
2023/01/05 08:18:05;;;;;;;12.93;3.08;;;;;;;;;;5040476;28;20060;-29
2023/01/05 08:20:31;;;;;;;12.82;3.65;;;;;;;;;;5040223;28;20047;-33
2023/01/05 08:22:57;;;;;;;15.35;4.20;;;;;;;;;;5040425;28;20025;-30
2023/01/05 08:25:24;;;;;;;8.60;3.63;;;;;;;;;;5040524;28;20067;-30
2023/01/05 08:27:50;;;;;;;9.43;3.45;;;;;;;;;;5040506;28;20055;-30
2023/01/05 08:30:16;;;;;;;14.30;3.47;;;;;;;;;;5040167;28;20053;-29
2023/01/05 08:32:42;;;;;;;14.05;3.63;;;;;;;;;;5040281;28;20087;-29
2023/01/05 08:35:09;;;;;;;10.25;2.78;;;;;;;;;;5040437;28;20107;-30
2023/01/05 08:37:35;;;;;;;6.82;4.03;;;;;;;;;;5040497;28;20131;-28
2023/01/05 08:40:01;;;;;;;16.40;4.10;;;;;;;;;;5040459;28;20309;-29
2023/01/05 08:42:27;;;;;;;17.30;4.50;;;;;;;;;;5040060;28;20029;-30
2023/01/05 08:44:53;;;;;;;19.55;4.15;;;;;;;;;;5040335;28;20014;-30
2023/01/05 08:47:20;;;;;;;40.35;6.20;;;;;;;;;;5040539;28;20112;-29
2023/01/05 08:49:46;;;;;;;22.95;5.13;;;;;;;;;;5040349;28;20084;-30
2023/01/05 08:52:12;;;;;;;23.55;4.10;;;;;;;;;;5040157;28;20033;-30
2023/01/05 08:54:38;;;;;;;23.48;4.72;;;;;;;;;;5040507;28;20044;-29
2023/01/05 08:57:04;;;;;;;16.02;3.70;;;;;;;;;;5040153;28;20025;-30
2023/01/05 08:59:30;;;;;;;16.65;5.15;;;;;;;;;;5040446;28;20471;-30
2023/01/05 09:01:56;;;;;;;22.02;4.40;;;;;;;;;;5037082;28;20026;-30
2023/01/05 09:04:24;;;;;;;15.80;4.15;;;;;;;;;;5036872;28;20053;-30
2023/01/05 09:06:50;;;;;;;29.83;4.43;;;;;;;;;;5037126;28;20017;-29
2023/01/05 09:09:16;;;;;;;19.40;3.90;;;;;;;;;;5037140;28;20151;-30
2023/01/05 09:11:42;;;;;;;14.93;3.92;;;;;;;;;;5037005;28;20163;-29
2023/01/05 09:14:13;;;;;;;21.67;4.45;;;;;;;;;;5036812;28;20037;-30
2023/01/05 09:16:39;;;;;;;13.27;3.00;;;;;;;;;;5035948;28;20120;-30
2023/01/05 09:19:06;;;;;;;30.45;4.97;;;;;;;;;;5036807;28;20484;-30
2023/01/05 09:21:32;;;;;;;10.85;3.33;;;;;;;;;;5036751;28;20402;-30
2023/01/05 09:23:58;;;;;;;9.05;3.72;;;;;;;;;;5036337;28;20033;-30
2023/01/05 09:26:24;;;;;;;14.48;3.47;;;;;;;;;;5035468;28;20419;-29
2023/01/05 09:28:50;;;;;;;12.63;3.42;;;;;;;;;;5036365;28;20049;-29
2023/01/05 09:31:18;;;;;;;14.13;2.97;;;;;;;;;;5036622;28;20510;-29
2023/01/05 09:33:45;;;;;;;5.95;3.03;;;;;;;;;;5036427;28;20034;-29
2023/01/05 09:36:11;;;;;;;13.30;3.60;;;;;;;;;;5036656;28;20100;-29
2023/01/05 09:38:37;;;;;;;12.10;3.47;;;;;;;;;;5036230;28;20045;-30
2023/01/05 09:41:17;;;;;;;11.75;3.53;;;;;;;;;;5035078;28;20037;-30
2023/01/05 09:43:45;;;;;;;11.25;3.90;;;;;;;;;;5035920;28;20096;-29
2023/01/05 09:46:14;;;;;;;13.57;4.97;;;;;;;;;;5036298;28;20079;-29
2023/01/05 09:48:42;;;;;;;10.50;3.45;;;;;;;;;;5036051;28;20026;-30
2023/01/05 09:51:09;;;;;;;11.80;4.40;;;;;;;;;;5035902;28;20037;-30
2023/01/05 09:53:35;;;;;;;10.77;3.95;;;;;;;;;;5035731;28;20364;-30
2023/01/05 09:56:01;;;;;;;10.75;3.85;;;;;;;;;;5035844;28;20036;-30
2023/01/05 09:58:30;;;;;;;20.05;4.18;;;;;;;;;;5035764;28;20059;-29
2023/01/05 10:01:16;;;;;;;15.32;4.22;;;;;;;;;;5035839;28;20033;-29
2023/01/05 10:03:53;;;;;;;13.73;3.30;;;;;;;;;;5035187;28;20415;-29
2023/01/05 10:06:20;;;;;;;25.70;5.57;;;;;;;;;;5034590;28;20025;-30
2023/01/05 10:08:51;;;;;;;11.05;3.42;;;;;;;;;;5035578;28;20014;-30
2023/01/05 10:14:10;;;;;;;19.15;4.40;;;;;;;;;;5035684;28;20099;-30
2023/01/05 10:16:36;;;;;;;13.23;3.50;;;;;;;;;;5035392;28;20061;-30
2023/01/05 10:19:03;;;;;;;11.32;4.20;;;;;;;;;;5035338;28;20037;-30
2023/01/05 10:21:42;;;;;;;13.10;3.25;;;;;;;;;;5035194;28;20034;-29
2023/01/05 10:24:26;;;;;;;14.52;5.18;;;;;;;;;;5035179;28;20445;-30
2023/01/05 10:27:04;;;;;;;23.45;4.22;;;;;;;;;;5035187;28;20029;-29
2023/01/05 10:29:39;;;;;;;13.43;3.72;;;;;;;;;;5035674;28;20388;-30
2023/01/05 10:32:13;;;;;;;14.98;4.07;;;;;;;;;;5035309;28;20160;-29
2023/01/05 10:35:03;;;;;;;12.48;3.55;;;;;;;;;;5035894;28;20083;-29
2023/01/05 10:37:34;;;;;;;9.77;3.85;;;;;;;;;;5024577;28;20427;-29
2023/01/05 10:40:06;;;;;;;10.40;3.08;;;;;;;;;;5035486;28;20030;-30
2023/01/05 10:42:58;;;;;;;12.23;4.05;;;;;;;;;;5035372;28;20072;-29
2023/01/05 10:45:25;;;;;;;14.52;3.33;;;;;;;;;;5012663;28;20341;-30
2023/01/05 10:47:52;;;;;;;14.25;2.95;;;;;;;;;;5035137;28;20421;-29
2023/01/05 10:50:24;;;;;;;8.75;3.83;;;;;;;;;;5035114;28;20044;-30
2023/01/05 10:52:52;;;;;;;16.20;5.40;;;;;;;;;;5034966;28;20025;-29
2023/01/05 10:55:19;;;;;;;16.40;4.95;;;;;;;;;;5035178;28;20483;-30
2023/01/05 10:57:46;;;;;;;21.63;8.23;;;;;;;;;;5035021;28;20029;-29
2023/01/05 11:00:16;;;;;;;18.27;4.68;;;;;;;;;;5035044;28;20370;-29
2023/01/05 11:02:48;;;;;;;15.73;3.83;;;;;;;;;;5035502;28;20354;-30
2023/01/05 11:05:26;;;;;;;36.17;7.05;;;;;;;;;;5033869;28;20475;-29
2023/01/05 11:07:58;;;;;;;15.50;4.32;;;;;;;;;;5034664;28;20083;-29
2023/01/05 11:10:24;;;;;;;24.85;4.70;;;;;;;;;;5034279;28;20025;-30
2023/01/05 11:12:51;;;;;;;23.00;4.93;;;;;;;;;;5034414;28;20017;-29
2023/01/05 11:15:18;;;;;;;30.67;4.72;;;;;;;;;;5034496;28;20025;-29
2023/01/05 11:17:45;;;;;;;24.98;5.03;;;;;;;;;;5034174;28;20134;-29
2023/01/05 11:20:15;;;;;;;20.88;5.20;;;;;;;;;;5033964;28;20039;-30
2023/01/05 11:22:44;;;;;;;28.15;4.85;;;;;;;;;;5034087;28;20163;-30
2023/01/05 11:25:13;;;;;;;20.35;4.75;;;;;;;;;;5033706;28;20055;-29
2023/01/05 11:27:39;;;;;;;21.88;4.13;;;;;;;;;;5033045;28;20463;-25
2023/01/05 11:30:19;;;;;;;19.42;4.43;;;;;;;;;;5034262;28;20105;-28
2023/01/05 11:32:46;;;;;;;18.50;4.82;;;;;;;;;;5034283;28;20108;-29
2023/01/05 11:35:35;;;;;;;17.35;3.50;;;;;;;;;;5034239;28;20405;-26
2023/01/05 11:38:01;;;;;;;12.98;3.35;;;;;;;;;;5026330;28;20033;-26
2023/01/05 11:40:33;;;;;;;10.02;3.42;;;;;;;;;;5034569;28;20045;-25
2023/01/05 11:42:59;;;;;;;10.77;3.33;;;;;;;;;;5034122;28;20030;-25
2023/01/05 11:45:28;;;;;;;18.00;3.70;;;;;;;;;;5033888;28;20030;-30
2023/01/05 11:47:55;;;;;;;15.20;3.88;;;;;;;;;;5033895;28;20505;-28
2023/01/05 11:50:26;;;;;;;23.40;4.40;;;;;;;;;;5033874;28;20104;-28
2023/01/05 11:52:56;;;;;;;11.30;3.35;;;;;;;;;;5033932;28;20025;-27
2023/01/05 11:55:32;;;;;;;11.38;4.50;;;;;;;;;;5032851;28;20056;-27
2023/01/05 11:58:16;;;;;;;12.93;5.43;;;;;;;;;;5034223;28;20418;-25
2023/01/05 12:00:59;;;;;;;17.77;3.75;;;;;;;;;;5033946;28;20322;-25
2023/01/05 12:03:52;;;;;;;16.30;3.67;;;;;;;;;;5033436;28;20427;-29
2023/01/05 12:06:24;;;;;;;14.90;4.53;;;;;;;;;;5011296;28;20147;-25
2023/01/05 12:09:02;;;;;;;20.70;4.38;;;;;;;;;;5032646;28;20025;-26
2023/01/05 12:11:31;;;;;;;24.15;4.78;;;;;;;;;;5033633;28;20112;-26
2023/01/05 12:14:06;;;;;;;14.77;4.00;;;;;;;;;;5033533;28;20022;-29
2023/01/05 12:16:56;;;;;;;16.27;4.65;;;;;;;;;;5033542;28;20044;-25
2023/01/05 12:19:28;;;;;;;17.15;4.63;;;;;;;;;;5022633;28;20527;-27
2023/01/05 12:22:02;;;;;;;16.58;3.90;;;;;;;;;;5033325;28;20467;-25
2023/01/05 12:24:39;;;;;;;24.60;6.82;;;;;;;;;;5033596;28;20033;-28
2023/01/05 12:27:12;;;;;;;16.20;3.90;;;;;;;;;;5033194;28;20025;-26
2023/01/05 12:29:38;;;;;;;17.58;4.80;;;;;;;;;;5034184;28;20360;-31
2023/01/05 12:32:23;;;;;;;17.30;4.78;;;;;;;;;;5033301;28;20033;-32
2023/01/05 12:34:58;;;;;;;13.27;4.45;;;;;;;;;;5032720;28;20049;-28
2023/01/05 12:37:26;;;;;;;12.95;4.15;;;;;;;;;;5037227;28;20072;-26
2023/01/05 12:40:11;;;;;;;21.27;5.18;;;;;;;;;;5037104;28;20025;-25
2023/01/05 12:42:49;;;;;;;22.88;4.93;;;;;;;;;;5037099;28;20068;-29
2023/01/05 12:45:37;;;;;;;14.55;4.03;;;;;;;;;;5037239;28;20032;-25
2023/01/05 12:48:08;;;;;;;13.43;4.90;;;;;;;;;;5037085;28;20017;-28
2023/01/05 12:50:43;;;;;;;18.83;4.75;;;;;;;;;;5036789;28;20457;-28
2023/01/05 12:53:24;;;;;;;14.85;3.80;;;;;;;;;;5036601;28;20037;-29
2023/01/05 12:55:50;;;;;;;;;;;;;;;;;;5037328;28;20356;-28
2023/01/05 12:58:32;;;;;;;18.95;4.10;;;;;;;;;;5037135;28;19909;-28
2023/01/05 13:01:00;;;;;;;11.90;3.88;;;;;;;;;;5037055;28;20029;-27
2023/01/05 13:03:47;;;;;;;10.52;3.33;;;;;;;;;;5036774;28;20384;-25
2023/01/05 13:06:16;;;;;;;27.70;4.38;;;;;;;;;;5037055;28;20022;-25
2023/01/05 13:08:52;;;;;;;21.75;4.25;;;;;;;;;;5036810;28;20036;-27
2023/01/05 13:11:27;;;;;;;19.63;4.07;;;;;;;;;;5036596;28;20029;-29
2023/01/05 13:14:03;;;;;;;25.73;5.28;;;;;;;;;;5036486;28;20403;-26
2023/01/05 13:16:37;;;;;;;13.07;4.35;;;;;;;;;;5036505;28;20037;-31
2023/01/05 13:19:11;;;;;;;21.05;4.65;;;;;;;;;;5036587;28;20025;-29
2023/01/05 13:21:39;;;;;;;12.85;4.45;;;;;;;;;;5036429;28;20044;-27
2023/01/05 13:24:09;;;;;;;14.95;4.97;;;;;;;;;;5036463;28;20118;-25
2023/01/05 13:26:36;;;;;;;22.90;4.43;;;;;;;;;;5036232;28;20022;-27
2023/01/05 13:29:03;;;;;;;25.77;6.53;;;;;;;;;;5035381;28;20457;-25
2023/01/05 13:31:35;;;;;;;26.27;5.00;;;;;;;;;;5036408;28;20410;-27
2023/01/05 13:34:11;;;;;;;24.48;4.70;;;;;;;;;;5036209;28;20037;-27
2023/01/05 13:36:40;;;;;;;21.52;4.40;;;;;;;;;;5036493;28;20057;-25
2023/01/05 13:39:18;;;;;;;22.70;4.68;;;;;;;;;;5036492;28;20021;-28
2023/01/05 13:41:44;;;;;;;30.27;5.95;;;;;;;;;;5036206;28;20057;-27
2023/01/05 13:44:20;;;;;;;14.10;4.53;;;;;;;;;;5036339;28;20034;-30
2023/01/05 13:46:46;;;;;;;26.73;5.07;;;;;;;;;;5035489;28;20029;-25
2023/01/05 13:49:15;;;;;;;28.23;4.78;;;;;;;;;;5036402;28;20028;-25
2023/01/05 13:52:11;;;;;;;19.65;4.80;;;;;;;;;;5036696;28;20033;-26
2023/01/05 13:54:45;;;;;;;15.32;4.72;;;;;;;;;;4983442;28;20043;-25
2023/01/05 13:57:16;;;;;;;25.05;6.55;;;;;;;;;;5036276;28;20105;-26
2023/01/05 13:59:42;;;;;;;31.55;5.43;;;;;;;;;;5035951;28;20533;-30
2023/01/05 14:02:44;;;;;;;25.27;5.70;;;;;;;;;;5035883;28;20022;-29
2023/01/05 14:05:24;;;;;;;38.17;6.50;;;;;;;;;;4975929;28;20045;-26
2023/01/05 14:07:51;;;;;;;27.77;5.13;;;;;;;;;;5030113;28;20099;-27
2023/01/05 14:10:31;;;;;;;11.82;3.80;;;;;;;;;;5035040;28;20083;-25
2023/01/05 14:12:57;;;;;;;15.25;4.43;;;;;;;;;;5036194;28;20100;-26
2023/01/05 14:15:28;;;;;;;20.63;6.13;;;;;;;;;;5036062;28;20017;-26
2023/01/05 14:17:54;;;;;;;;;;;;;;;;;;5036130;28;20025;-24
2023/01/05 14:20:48;;;;;;;24.77;4.05;;;;;;;;;;5035785;28;19921;-25
2023/01/05 14:23:28;;;;;;;24.02;4.82;;;;;;;;;;5035415;28;20108;-26
2023/01/05 14:25:59;;;;;;;18.40;5.28;;;;;;;;;;5035580;28;20036;-25
2023/01/05 14:28:28;;;;;;;31.55;5.28;;;;;;;;;;5035882;28;20135;-30
2023/01/05 14:31:17;;;;;;;30.80;6.30;;;;;;;;;;5035542;28;20100;-26
2023/01/05 14:33:47;;;;;;;25.15;5.05;;;;;;;;;;5026192;28;20041;-27
2023/01/05 14:36:42;;;;;;;20.95;4.53;;;;;;;;;;5035451;28;20040;-26
2023/01/05 14:39:17;;;;;;;15.45;4.45;;;;;;;;;;5023267;28;20053;-27
2023/01/05 14:41:44;;;;;;;17.05;5.22;;;;;;;;;;5034201;28;20375;-25
2023/01/05 14:44:18;;;;;;;21.60;4.47;;;;;;;;;;5034276;28;20360;-26
2023/01/05 14:46:51;;;;;;;11.93;4.93;;;;;;;;;;5035428;28;20025;-28
2023/01/05 14:49:23;;;;;;;24.08;6.43;;;;;;;;;;5035461;28;20037;-25
2023/01/05 14:51:54;;;;;;;18.17;3.50;;;;;;;;;;5035254;28;20025;-28
2023/01/05 14:54:35;;;;;;;13.15;4.15;;;;;;;;;;5035106;28;20068;-25
2023/01/05 14:57:19;;;;;;;20.50;5.03;;;;;;;;;;5035210;28;20099;-25
2023/01/05 14:59:46;;;;;;;21.33;4.82;;;;;;;;;;5033899;28;20033;-27
2023/01/05 15:02:18;;;;;;;18.33;4.80;;;;;;;;;;5033823;28;20499;-24
2023/01/05 15:04:45;;;;;;;19.77;4.68;;;;;;;;;;5033945;28;20056;-29
2023/01/05 15:07:14;;;;;;;18.02;5.55;;;;;;;;;;5035211;28;20051;-28
2023/01/05 15:09:58;;;;;;;23.48;4.75;;;;;;;;;;5033822;28;20067;-26
2023/01/05 15:12:43;;;;;;;17.27;4.00;;;;;;;;;;5033787;28;20037;-27
2023/01/05 15:15:24;;;;;;;26.23;7.20;;;;;;;;;;5034867;28;20036;-26
2023/01/05 15:17:51;;;;;;;;;;;;;;;;;;5035154;28;20444;-27
2023/01/05 15:20:20;;;;;;;13.05;3.92;;;;;;;;;;5034962;28;19917;-25
2023/01/05 15:22:56;;;;;;;15.05;4.88;;;;;;;;;;5034769;28;20056;-27
2023/01/05 15:25:48;;;;;;;17.63;4.15;;;;;;;;;;5034711;28;20044;-29
2023/01/05 15:28:33;;;;;;;31.90;5.05;;;;;;;;;;5004125;28;20452;-26